createdAt,value
2018-12-12T00:13:01.433Z,4.7
2018-12-12T00:28:01.503Z,4.7
2018-12-12T00:43:01.268Z,4.7
2018-12-12T00:58:01.346Z,4.7
2018-12-12T01:08:01.406Z,4.6
2018-12-12T01:23:01.236Z,4.6
2018-12-12T01:38:01.381Z,4.6
2018-12-12T01:43:01.291Z,4.7
2018-12-12T01:58:01.409Z,4.7
2018-12-12T02:13:01.435Z,4.7
2018-12-12T02:28:01.274Z,4.8
2018-12-12T02:43:01.256Z,4.8
2018-12-12T02:58:01.357Z,4.7
2018-12-12T03:13:01.334Z,4.7
2018-12-12T03:29:01.374Z,4.7
2018-12-12T03:44:01.293Z,4.7
2018-12-12T03:59:01.296Z,4.7
2018-12-12T04:15:01.318Z,4.7
2018-12-12T04:30:01.337Z,4.7
2018-12-12T04:45:02.358Z,4.7
2018-12-12T04:55:01.329Z,4.6
2018-12-12T05:00:01.275Z,4.6
2018-12-12T05:15:01.417Z,4.6
2018-12-12T05:25:01.299Z,4.7
2018-12-12T05:30:01.334Z,4.7
2018-12-12T05:45:01.339Z,4.7
2018-12-12T06:00:01.461Z,4.7
2018-12-12T06:15:01.354Z,4.7
2018-12-12T06:30:01.340Z,4.7
2018-12-12T06:45:01.082Z,4.7
2018-12-12T07:00:01.277Z,4.8
2018-12-12T07:15:01.227Z,4.8
2018-12-12T07:30:01.274Z,4.8
2018-12-12T07:45:01.241Z,4.8
2018-12-12T08:00:01.094Z,4.8
2018-12-12T08:05:01.254Z,4.7
2018-12-12T08:15:01.272Z,4.7
2018-12-12T08:30:06.442Z,4.6
2018-12-12T08:45:06.249Z,4.6
2018-12-12T09:00:06.257Z,4.6
2018-12-12T09:16:01.251Z,4.5
2018-12-12T09:21:01.296Z,4.6
2018-12-12T09:26:01.284Z,4.5
2018-12-12T09:31:01.300Z,4.4
2018-12-12T09:36:01.282Z,4.3
2018-12-12T09:41:06.279Z,4.2
2018-12-12T09:46:01.259Z,4.0
2018-12-12T09:51:07.666Z,3.9
2018-12-12T10:06:01.313Z,4.0
2018-12-12T10:12:01.272Z,4.2
2018-12-12T10:17:06.246Z,4.4
2018-12-12T10:22:06.267Z,4.5
2018-12-12T10:27:06.274Z,4.7
2018-12-12T10:32:06.277Z,4.8
2018-12-12T10:47:06.287Z,4.8
2018-12-12T11:02:01.374Z,4.8
2018-12-12T11:12:01.191Z,4.9
2018-12-12T11:17:01.128Z,5.0
2018-12-12T11:22:01.483Z,5.1
2018-12-12T11:27:01.341Z,5.2
2018-12-12T11:32:01.425Z,5.3
2018-12-12T11:47:01.378Z,5.3
2018-12-12T11:57:01.380Z,5.2
2018-12-12T12:07:02.109Z,5.3
2018-12-12T12:17:01.283Z,5.4
2018-12-12T12:22:01.339Z,5.5
2018-12-12T12:27:01.476Z,5.6
2018-12-12T12:42:01.457Z,5.6
2018-12-12T12:47:01.379Z,5.5
2018-12-12T12:52:01.467Z,5.4
2018-12-12T12:57:01.407Z,5.3
2018-12-12T13:02:01.401Z,5.2
2018-12-12T13:07:01.436Z,5.1
2018-12-12T13:12:01.685Z,5.0
2018-12-12T13:17:01.399Z,4.9
2018-12-12T13:27:01.440Z,4.8
2018-12-12T13:42:01.460Z,4.7
2018-12-12T13:52:01.369Z,4.6
2018-12-12T14:07:01.444Z,4.6
2018-12-12T14:12:01.415Z,4.5
2018-12-12T14:27:01.407Z,4.5
2018-12-12T14:42:01.399Z,4.5
2018-12-12T14:57:01.373Z,4.5
2018-12-12T15:12:01.411Z,4.5
2018-12-12T15:17:01.417Z,4.6
2018-12-12T15:32:01.445Z,4.6
2018-12-12T15:37:01.365Z,4.5
2018-12-12T15:52:01.420Z,4.4
2018-12-12T16:07:01.434Z,4.3
2018-12-12T16:22:01.322Z,4.3
2018-12-12T16:32:01.267Z,4.4
2018-12-12T16:47:01.393Z,4.4
2018-12-12T17:02:01.357Z,4.4
2018-12-12T17:17:01.253Z,4.4
2018-12-12T17:22:01.282Z,4.5
2018-12-12T17:37:01.327Z,4.5
2018-12-12T17:52:01.335Z,4.5
2018-12-12T18:08:01.339Z,4.5
2018-12-12T18:23:01.327Z,4.5
2018-12-12T18:38:01.326Z,4.5
2018-12-12T18:48:01.329Z,4.6
2018-12-12T19:03:01.399Z,4.6
2018-12-12T19:19:01.310Z,4.6
2018-12-12T19:34:01.386Z,4.6
2018-12-12T19:49:01.389Z,4.6
2018-12-12T19:54:01.335Z,4.5
2018-12-12T20:09:01.417Z,4.5
2018-12-12T20:19:02.095Z,4.4
2018-12-12T20:29:01.320Z,4.3
2018-12-12T20:44:01.519Z,4.3
2018-12-12T20:59:01.325Z,4.3
2018-12-12T21:14:02.447Z,4.3
2018-12-12T21:29:01.399Z,4.2
2018-12-12T21:44:01.389Z,4.2
2018-12-12T21:54:01.318Z,4.3
2018-12-12T22:09:01.356Z,4.3
2018-12-12T22:24:01.304Z,4.3
2018-12-12T22:35:01.312Z,4.2
2018-12-12T22:45:01.294Z,4.2
2018-12-12T23:00:01.334Z,4.2
2018-12-12T23:15:01.443Z,4.2
2018-12-12T23:31:01.750Z,4.2
2018-12-12T23:46:01.384Z,4.2
